Time;durP1;ratioP1;P1;durP2;ratioP2;P2;SDS_P1;SDS_P2;PMS_P1;PMS_P2;Temp;Humidity;BMP_temperature;BMP_pressure;BME280_temperature;BME280_humidity;BME280_pressure;Samples;Min_cycle;Max_cycle;Signal;HPM_P1;HPM_P2
2021/12/31 00:02:12;;;;;;;8.40;7.45;;;;;;;12.03;100.00;100649.72;5064575;28;20103;-60
2021/12/31 00:04:39;;;;;;;8.07;7.15;;;;;;;12.02;100.00;100646.22;5057446;28;20147;-61
2021/12/31 00:07:06;;;;;;;7.88;7.07;;;;;;;12.00;100.00;100644.63;5053105;28;20139;-60
2021/12/31 00:09:33;;;;;;;8.23;7.43;;;;;;;11.94;100.00;100645.88;5039918;28;20070;-62
2021/12/31 00:12:02;;;;;;;9.15;7.03;;;;;;;11.99;100.00;100637.66;5054366;28;20148;-61
2021/12/31 00:14:30;;;;;;;8.80;7.97;;;;;;;11.97;100.00;100650.09;5053278;28;20056;-60
2021/12/31 00:16:57;;;;;;;8.30;7.50;;;;;;;11.91;100.00;100653.97;5057501;28;20636;-61
2021/12/31 00:19:28;;;;;;;7.95;7.25;;;;;;;11.96;100.00;100645.78;5048282;28;20055;-61
2021/12/31 00:21:56;;;;;;;8.75;7.82;;;;;;;11.96;100.00;100654.53;5051726;28;20056;-60
2021/12/31 00:24:25;;;;;;;10.60;8.38;;;;;;;11.91;100.00;100636.34;5051401;28;20101;-60
2021/12/31 00:26:53;;;;;;;9.30;8.32;;;;;;;11.92;100.00;100634.56;5051796;28;20056;-61
2021/12/31 00:29:20;;;;;;;9.32;8.32;;;;;;;11.91;100.00;100628.44;5048941;28;20794;-60
2021/12/31 00:31:47;;;;;;;9.25;8.07;;;;;;;11.88;100.00;100638.34;5056790;28;20552;-60
2021/12/31 00:34:14;;;;;;;9.13;8.23;;;;;;;11.87;100.00;100634.84;5053934;28;20056;-61
2021/12/31 00:36:45;;;;;;;11.40;8.95;;;;;;;11.86;100.00;100630.53;5051490;28;20095;-58
2021/12/31 00:39:14;;;;;;;9.93;8.93;;;;;;;11.86;100.00;100640.25;5055785;28;20053;-61
2021/12/31 00:41:42;;;;;;;13.35;9.60;;;;;;;11.86;100.00;100646.34;5042913;28;20138;-60
2021/12/31 00:44:09;;;;;;;11.45;9.30;;;;;;;11.89;100.00;100642.69;5052619;28;20144;-59
2021/12/31 00:46:36;;;;;;;10.45;8.80;;;;;;;11.87;100.00;100626.09;5060056;28;20404;-60
2021/12/31 00:49:05;;;;;;;11.20;9.25;;;;;;;11.88;100.00;100625.16;5053475;28;20156;-61
2021/12/31 00:51:33;;;;;;;13.68;9.57;;;;;;;11.96;100.00;100629.94;5051727;28;20060;-59
2021/12/31 00:54:00;;;;;;;16.10;10.45;;;;;;;11.97;100.00;100629.81;5049731;28;20095;-60
2021/12/31 00:56:27;;;;;;;14.27;10.25;;;;;;;11.97;100.00;100636.91;5062279;28;20064;-60
2021/12/31 00:58:54;;;;;;;11.63;9.30;;;;;;;11.94;100.00;100639.75;5048947;28;20448;-59
2021/12/31 01:01:23;;;;;;;12.05;10.23;;;;;;;12.04;100.00;100640.84;5051840;28;20045;-60
2021/12/31 01:03:51;;;;;;;10.38;9.20;;;;;;;12.05;100.00;100656.56;5047837;28;20057;-60
2021/12/31 01:06:18;;;;;;;11.63;10.52;;;;;;;12.09;100.00;100644.88;5064291;28;20111;-60
2021/12/31 01:08:45;;;;;;;10.32;8.93;;;;;;;12.11;100.00;100653.56;5053524;28;20057;-60
2021/12/31 01:11:12;;;;;;;11.55;8.82;;;;;;;12.14;100.00;100648.06;5058733;28;20071;-60
2021/12/31 01:16:18;;;;;;;12.00;8.63;;;;;;;12.17;100.00;100657.59;5057739;28;20055;-59
2021/12/31 01:21:16;;;;;;;9.25;7.95;;;;;;;12.11;100.00;100652.69;5047732;28;20059;-59
2021/12/31 01:23:43;;;;;;;9.75;8.23;;;;;;;12.10;100.00;100651.84;5063200;28;20041;-60
2021/12/31 01:26:10;;;;;;;9.15;8.25;;;;;;;12.11;100.00;100664.13;5050413;28;20512;-59
2021/12/31 01:28:37;;;;;;;8.35;7.60;;;;;;;12.11;100.00;100653.56;5051566;28;20068;-60
2021/12/31 01:31:05;;;;;;;10.15;8.52;;;;;;;12.13;100.00;100658.72;5050717;28;20057;-60
2021/12/31 01:33:32;;;;;;;10.25;7.75;;;;;;;12.19;100.00;100654.84;5053587;28;20139;-60
2021/12/31 01:35:59;;;;;;;9.32;8.43;;;;;;;12.20;100.00;100660.00;5038759;28;20049;-61
2021/12/31 01:38:27;;;;;;;9.07;7.40;;;;;;;12.18;100.00;100659.28;5055818;28;20052;-60
2021/12/31 01:40:54;;;;;;;8.40;7.20;;;;;;;12.21;100.00;100661.72;5065821;28;20139;-59
2021/12/31 01:43:21;;;;;;;9.30;7.93;;;;;;;12.18;100.00;100659.28;5052750;28;20284;-59
2021/12/31 01:48:26;;;;;;;9.50;7.70;;;;;;;12.11;100.00;100658.84;5019508;28;20076;-62
2021/12/31 01:50:53;;;;;;;9.30;7.65;;;;;;;12.14;100.00;100650.69;5030175;28;20145;-62
2021/12/31 01:53:26;;;;;;;7.97;7.28;;;;;;;12.15;100.00;100662.09;5026229;28;20558;-62
2021/12/31 01:55:58;;;;;;;9.52;7.03;;;;;;;12.19;100.00;100657.47;5033113;28;20421;-60
2021/12/31 01:58:26;;;;;;;6.78;6.10;;;;;;;12.21;100.00;100664.34;5011345;28;20149;-62
2021/12/31 02:00:54;;;;;;;6.10;5.53;;;;;;;12.29;100.00;100655.91;5032631;28;20096;-62
2021/12/31 02:03:22;;;;;;;7.32;5.82;;;;;;;12.30;100.00;100655.84;5029924;28;20108;-62
2021/12/31 02:05:50;;;;;;;5.53;5.03;;;;;;;12.33;100.00;100649.50;5014725;28;20119;-62
2021/12/31 02:08:18;;;;;;;6.60;5.45;;;;;;;12.31;100.00;100657.53;5027701;28;20045;-61
2021/12/31 02:10:49;;;;;;;6.22;5.20;;;;;;;12.30;100.00;100666.41;5030994;28;20410;-60
2021/12/31 02:13:17;;;;;;;11.25;5.82;;;;;;;12.30;100.00;100666.41;5030983;28;20049;-60
2021/12/31 02:15:44;;;;;;;7.13;5.05;;;;;;;12.27;100.00;100658.66;5029121;28;20081;-62
2021/12/31 02:18:12;;;;;;;5.93;4.45;;;;;;;12.30;100.00;100668.19;5029973;28;20049;-62
2021/12/31 02:20:43;;;;;;;4.93;4.28;;;;;;;12.35;100.00;100669.56;5026862;28;20141;-62
2021/12/31 02:23:14;;;;;;;8.48;4.90;;;;;;;12.31;100.00;100688.34;5023676;28;20136;-62
2021/12/31 02:25:42;;;;;;;6.35;4.43;;;;;;;12.31;100.00;100669.88;5029184;28;20053;-61
2021/12/31 02:28:09;;;;;;;6.40;5.47;;;;;;;12.29;100.00;100683.19;5027058;28;20096;-62
2021/12/31 02:30:36;;;;;;;5.88;5.18;;;;;;;12.29;100.00;100677.91;5032241;28;20064;-62
2021/12/31 02:33:03;;;;;;;6.03;4.78;;;;;;;12.22;100.00;100678.41;5025387;28;20041;-62
2021/12/31 02:35:34;;;;;;;6.70;5.30;;;;;;;12.22;100.00;100681.03;5027596;28;20486;-62
2021/12/31 02:38:02;;;;;;;11.10;5.95;;;;;;;12.19;100.00;100668.88;5030564;28;20381;-62
2021/12/31 02:40:30;;;;;;;6.55;5.13;;;;;;;12.23;100.00;100677.44;5032071;28;20092;-61
2021/12/31 02:42:58;;;;;;;8.70;6.13;;;;;;;12.18;100.00;100679.53;5030336;28;20112;-61
2021/12/31 02:45:30;;;;;;;7.55;6.50;;;;;;;12.16;100.00;100669.09;5031840;28;20061;-62
2021/12/31 02:48:00;;;;;;;8.57;6.25;;;;;;;12.20;100.00;100682.91;5027896;28;20060;-62
2021/12/31 02:50:34;;;;;;;6.97;6.28;;;;;;;12.20;100.00;100690.81;5031812;28;20045;-61
2021/12/31 02:53:04;;;;;;;8.38;6.72;;;;;;;12.21;100.00;100677.56;5030847;28;20050;-61
2021/12/31 02:55:31;;;;;;;7.47;6.68;;;;;;;12.21;100.00;100672.28;5031747;28;20054;-62
2021/12/31 02:57:59;;;;;;;11.63;6.38;;;;;;;12.19;100.00;100668.88;5028052;28;20141;-62
2021/12/31 03:00:26;;;;;;;7.93;6.57;;;;;;;12.19;100.00;100675.94;5015757;28;20041;-62
2021/12/31 03:02:54;;;;;;;8.25;6.53;;;;;;;12.18;100.00;100677.75;5025524;28;20056;-62
2021/12/31 03:05:22;;;;;;;8.82;6.72;;;;;;;12.20;100.00;100669.72;5029635;28;20056;-62
2021/12/31 03:07:49;;;;;;;7.70;6.63;;;;;;;12.21;100.00;100666.16;5030574;28;20067;-62
2021/12/31 03:10:17;;;;;;;9.02;6.57;;;;;;;12.17;100.00;100668.13;5011702;28;20092;-62
2021/12/31 03:12:44;;;;;;;8.45;7.20;;;;;;;12.11;100.00;100666.75;5034865;28;20054;-62
2021/12/31 03:15:12;;;;;;;8.30;7.15;;;;;;;12.15;100.00;100670.84;5010712;28;20049;-62
2021/12/31 03:17:40;;;;;;;8.77;7.38;;;;;;;12.13;100.00;100651.66;5013527;28;20149;-62
2021/12/31 03:20:24;;;;;;;9.35;6.97;;;;;;;12.14;100.00;100660.41;5009597;28;20129;-62
2021/12/31 03:22:52;;;;;;;8.55;7.75;;;;;;;12.10;100.00;100661.56;5030734;28;20132;-61
2021/12/31 03:25:19;;;;;;;9.75;8.40;;;;;;;12.09;100.00;100650.16;5027913;28;20129;-62
2021/12/31 03:27:46;;;;;;;11.57;8.38;;;;;;;12.06;100.00;100645.06;5027304;28;20137;-62
2021/12/31 03:30:15;;;;;;;12.35;8.70;;;;;;;12.15;100.00;100656.81;5028173;28;20056;-62
2021/12/31 03:32:43;;;;;;;13.20;8.60;;;;;;;12.10;100.00;100658.91;5032288;28;20064;-62
2021/12/31 03:35:10;;;;;;;10.35;8.18;;;;;;;12.14;100.00;100665.69;5034982;28;20050;-62
2021/12/31 03:37:37;;;;;;;10.30;8.65;;;;;;;12.11;100.00;100669.38;5029390;28;20053;-62
2021/12/31 03:40:05;;;;;;;12.00;9.57;;;;;;;12.19;100.00;100660.13;5030204;28;20049;-62
2021/12/31 03:42:32;;;;;;;10.10;8.82;;;;;;;12.14;100.00;100657.78;5030249;28;20053;-62
2021/12/31 03:44:59;;;;;;;13.65;10.52;;;;;;;12.16;100.00;100667.28;5031623;28;20216;-62
2021/12/31 03:47:26;;;;;;;12.13;9.65;;;;;;;12.16;100.00;100656.75;5024634;28;20080;-62
2021/12/31 03:49:53;;;;;;;10.05;9.05;;;;;;;12.19;100.00;100660.13;5030177;28;20049;-60
2021/12/31 03:52:20;;;;;;;9.55;8.55;;;;;;;12.21;100.00;100671.44;5033436;28;20375;-61
2021/12/31 03:54:47;;;;;;;13.25;8.75;;;;;;;12.22;100.00;100671.31;5030282;28;20045;-61
2021/12/31 03:57:15;;;;;;;14.60;9.02;;;;;;;12.25;100.00;100672.91;5012693;28;20577;-62
2021/12/31 03:59:42;;;;;;;10.23;8.88;;;;;;;12.26;100.00;100669.34;5030020;28;20132;-62
2021/12/31 04:02:09;;;;;;;10.68;8.98;;;;;;;12.28;100.00;100667.44;5032970;28;20049;-62
2021/12/31 04:04:36;;;;;;;9.40;8.25;;;;;;;12.25;100.00;100672.91;5025517;28;20064;-61
2021/12/31 04:07:04;;;;;;;9.93;8.93;;;;;;;12.25;100.00;100664.97;5012438;28;20128;-62
2021/12/31 04:09:31;;;;;;;12.57;8.70;;;;;;;12.21;100.00;100653.78;5028459;28;20057;-62
2021/12/31 04:11:58;;;;;;;10.52;8.45;;;;;;;12.21;100.00;100663.50;5030043;28;20088;-61
2021/12/31 04:14:25;;;;;;;8.82;7.30;;;;;;;12.21;100.00;100667.00;5026314;28;20064;-62
2021/12/31 04:16:53;;;;;;;9.55;8.55;;;;;;;12.15;100.00;100649.75;5029691;28;20417;-62
2021/12/31 04:19:21;;;;;;;9.73;8.25;;;;;;;12.18;100.00;100658.44;5026884;28;20057;-63
2021/12/31 04:21:50;;;;;;;10.98;8.00;;;;;;;12.22;100.00;100659.91;5028193;28;20050;-63
2021/12/31 04:24:51;;;;;;;11.43;8.20;;;;;;;12.25;100.00;100649.13;5028566;28;20093;-63
2021/12/31 04:27:16;;;;;;;9.27;7.38;;;;;;;12.15;100.00;100648.91;5023471;28;20053;-63
2021/12/31 04:29:50;;;;;;;11.32;8.15;;;;;;;12.19;100.00;100639.84;5032203;28;20136;-62
2021/12/31 04:32:20;;;;;;;11.85;8.45;;;;;;;12.24;100.00;100658.84;5026969;28;20064;-62
2021/12/31 04:34:47;;;;;;;9.52;8.23;;;;;;;12.22;100.00;100639.66;5031535;28;20085;-63
2021/12/31 04:37:15;;;;;;;13.40;8.52;;;;;;;12.19;100.00;100644.28;5029585;28;20053;-62
2021/12/31 04:39:42;;;;;;;12.18;7.75;;;;;;;12.18;100.00;100646.06;5030424;28;20061;-63
2021/12/31 04:42:09;;;;;;;9.82;8.57;;;;;;;12.15;100.00;100640.97;5024868;28;20543;-61
2021/12/31 04:44:36;;;;;;;11.82;8.45;;;;;;;12.18;100.00;100637.31;5030225;28;20055;-63
2021/12/31 04:47:04;;;;;;;11.07;7.68;;;;;;;12.16;100.00;100635.63;5028826;28;20076;-63
2021/12/31 04:49:31;;;;;;;8.00;7.18;;;;;;;12.14;100.00;100639.28;5024113;28;20052;-63
2021/12/31 04:51:58;;;;;;;8.02;7.32;;;;;;;12.09;100.00;100638.75;5028755;28;20140;-63
2021/12/31 04:54:25;;;;;;;11.70;7.20;;;;;;;12.07;100.00;100638.03;5029506;28;20063;-63
2021/12/31 04:56:55;;;;;;;7.80;6.22;;;;;;;12.03;100.00;100629.44;5026936;28;20497;-61
2021/12/31 04:59:23;;;;;;;7.35;6.07;;;;;;;12.06;100.00;100647.69;5028436;28;20061;-63
2021/12/31 05:01:54;;;;;;;6.82;6.00;;;;;;;12.10;100.00;100632.53;5028812;28;20056;-61
2021/12/31 05:04:21;;;;;;;6.20;5.60;;;;;;;12.08;100.00;100642.34;5026996;28;20416;-62
2021/12/31 05:06:50;;;;;;;7.10;5.28;;;;;;;12.18;100.00;100642.59;5026534;28;20502;-62
2021/12/31 05:09:17;;;;;;;6.18;4.90;;;;;;;12.12;100.00;100635.94;5027188;28;20295;-62
2021/12/31 05:11:45;;;;;;;7.13;4.85;;;;;;;12.13;100.00;100645.53;5028421;28;20053;-63
2021/12/31 05:14:12;;;;;;;4.80;4.35;;;;;;;12.15;100.00;100654.19;5028837;28;20050;-61
2021/12/31 05:16:39;;;;;;;5.82;4.13;;;;;;;12.15;100.00;100646.25;5028397;28;20055;-62
2021/12/31 05:19:06;;;;;;;6.63;3.55;;;;;;;12.19;100.00;100649.56;5026767;28;20505;-62
2021/12/31 05:21:33;;;;;;;6.30;4.45;;;;;;;12.20;100.00;100635.41;5028327;28;20132;-62
2021/12/31 05:24:01;;;;;;;4.93;4.22;;;;;;;12.20;100.00;100645.97;5026411;28;20053;-62
2021/12/31 05:26:28;;;;;;;5.43;3.72;;;;;;;12.20;100.00;100645.97;5030243;28;20466;-62
2021/12/31 05:28:55;;;;;;;7.40;3.85;;;;;;;12.23;100.00;100635.22;5030691;28;20144;-61
2021/12/31 05:31:22;;;;;;;4.55;3.88;;;;;;;12.23;100.00;100651.88;5025150;28;20053;-62
2021/12/31 05:33:49;;;;;;;3.85;3.42;;;;;;;12.23;100.00;100645.78;5031633;28;20053;-62
2021/12/31 05:36:17;;;;;;;5.10;3.08;;;;;;;12.23;100.00;100645.78;5036154;28;20107;-62
2021/12/31 05:38:44;;;;;;;4.20;3.55;;;;;;;12.23;100.00;100661.59;5026467;28;20534;-62
2021/12/31 05:41:11;;;;;;;3.55;3.25;;;;;;;12.22;100.00;100650.22;5035462;28;20062;-63
2021/12/31 05:43:39;;;;;;;5.88;3.30;;;;;;;12.22;100.00;100650.22;5032917;28;20064;-62
2021/12/31 05:46:06;;;;;;;3.28;2.97;;;;;;;12.21;100.00;100650.31;5035321;28;20054;-63
2021/12/31 05:48:33;;;;;;;4.97;3.08;;;;;;;12.24;100.00;100632.47;5020389;28;20126;-61
2021/12/31 05:51:01;;;;;;;4.57;3.58;;;;;;;12.26;100.00;100642.94;5038660;28;20133;-63
2021/12/31 05:53:28;;;;;;;3.72;3.15;;;;;;;12.19;100.00;100633.72;5030705;28;20057;-63
2021/12/31 05:55:55;;;;;;;5.18;3.22;;;;;;;12.18;100.00;100646.06;5030918;28;20385;-63
2021/12/31 05:58:22;;;;;;;4.53;3.50;;;;;;;12.25;100.00;100644.75;5030935;28;20144;-63
2021/12/31 06:00:49;;;;;;;4.53;3.83;;;;;;;12.20;100.00;100641.53;5033184;28;20460;-62
2021/12/31 06:03:17;;;;;;;3.58;2.92;;;;;;;12.21;100.00;100648.53;5030739;28;20404;-63
2021/12/31 06:05:44;;;;;;;5.20;3.28;;;;;;;12.26;100.00;100653.50;5028147;28;20046;-63
2021/12/31 06:08:11;;;;;;;4.53;3.17;;;;;;;12.22;100.00;100652.00;5031269;28;20547;-63
2021/12/31 06:10:42;;;;;;;6.63;3.20;;;;;;;12.22;100.00;100660.75;5031315;28;20134;-63
2021/12/31 06:13:11;;;;;;;4.78;3.15;;;;;;;12.24;100.00;100658.84;5007155;28;20088;-63
2021/12/31 06:15:41;;;;;;;5.45;3.42;;;;;;;12.25;100.00;100670.25;5030799;28;20041;-63
2021/12/31 06:18:09;;;;;;;4.72;3.40;;;;;;;12.27;100.00;100663.09;5025029;28;20092;-63
2021/12/31 06:20:36;;;;;;;5.13;3.17;;;;;;;12.31;100.00;100661.97;5024222;28;20401;-63
2021/12/31 06:23:03;;;;;;;4.35;3.55;;;;;;;12.23;100.00;100661.59;5012091;28;20049;-63
2021/12/31 06:25:31;;;;;;;6.28;3.53;;;;;;;12.24;100.00;100658.00;5028945;28;20149;-63
2021/12/31 06:27:59;;;;;;;5.05;3.22;;;;;;;12.27;100.00;100663.09;5032283;28;20104;-63
2021/12/31 06:30:27;;;;;;;3.80;3.33;;;;;;;12.22;100.00;100678.41;5028474;28;20136;-63
2021/12/31 06:32:54;;;;;;;5.63;3.42;;;;;;;12.25;100.00;100667.63;5030363;28;20072;-64
2021/12/31 06:35:23;;;;;;;3.83;3.10;;;;;;;12.27;100.00;100663.09;5027826;28;20141;-64
2021/12/31 06:37:52;;;;;;;5.90;3.60;;;;;;;12.29;100.00;100671.75;5027939;28;20128;-62
2021/12/31 06:40:22;;;;;;;4.57;3.60;;;;;;;12.29;100.00;100680.53;5034469;28;20045;-61
2021/12/31 06:42:50;;;;;;;9.45;3.58;;;;;;;12.29;100.00;100691.09;5031795;28;20144;-64
2021/12/31 06:45:17;;;;;;;3.47;3.10;;;;;;;12.26;100.00;100683.38;5033154;28;20137;-61
2021/12/31 06:47:44;;;;;;;5.00;3.60;;;;;;;12.24;100.00;100682.63;5011426;28;20476;-63
2021/12/31 06:50:11;;;;;;;4.53;3.53;;;;;;;12.23;100.00;100688.00;5013906;28;20065;-62
2021/12/31 06:52:39;;;;;;;3.88;3.50;;;;;;;12.28;100.00;100681.47;5031871;28;20049;-63
2021/12/31 06:55:07;;;;;;;6.90;4.45;;;;;;;12.24;100.00;100701.09;5007267;28;20137;-63
2021/12/31 06:57:35;;;;;;;7.15;4.07;;;;;;;12.23;100.00;100698.56;5009344;28;20137;-63
2021/12/31 07:00:04;;;;;;;4.57;3.15;;;;;;;12.29;100.00;100685.81;5024269;28;20081;-61
2021/12/31 07:02:31;;;;;;;6.68;3.83;;;;;;;12.26;100.00;100687.81;5019752;28;20249;-61
2021/12/31 07:04:59;;;;;;;5.88;4.22;;;;;;;12.26;100.00;100683.38;5011837;28;20052;-63
2021/12/31 07:07:26;;;;;;;4.10;3.47;;;;;;;12.25;100.00;100675.53;5013624;28;20161;-63
2021/12/31 07:09:53;;;;;;;6.53;3.97;;;;;;;12.20;100.00;100690.81;5018524;28;20068;-62
2021/12/31 07:12:20;;;;;;;5.20;4.18;;;;;;;12.21;100.00;100687.28;5029938;28;20143;-63
2021/12/31 07:14:47;;;;;;;6.15;3.55;;;;;;;12.27;100.00;100684.22;5025575;28;20063;-61
2021/12/31 07:17:14;;;;;;;6.93;3.95;;;;;;;12.20;100.00;100688.19;5030712;28;20053;-62
2021/12/31 07:19:43;;;;;;;3.60;3.30;;;;;;;12.24;100.00;100679.97;5027677;28;20135;-61
2021/12/31 07:22:10;;;;;;;8.57;4.25;;;;;;;12.25;100.00;100680.81;5028310;28;20535;-62
2021/12/31 07:24:38;;;;;;;5.30;3.53;;;;;;;12.22;100.00;100681.03;5033468;28;20447;-62
2021/12/31 07:27:05;;;;;;;5.60;3.97;;;;;;;12.30;100.00;100706.00;5030059;28;20050;-62
2021/12/31 07:29:35;;;;;;;3.78;3.38;;;;;;;12.27;100.00;100715.91;5026562;28;20057;-62
2021/12/31 07:32:03;;;;;;;3.75;3.28;;;;;;;12.31;100.00;100691.00;5027356;28;20106;-62
2021/12/31 07:34:30;;;;;;;4.47;3.80;;;;;;;12.27;100.00;100697.41;5026985;28;20174;-62
2021/12/31 07:36:57;;;;;;;12.73;4.20;;;;;;;12.31;100.00;100702.41;5030451;28;20544;-62
2021/12/31 07:39:30;;;;;;;5.78;3.38;;;;;;;12.27;100.00;100695.63;5024313;28;20447;-61
2021/12/31 07:41:57;;;;;;;6.28;3.22;;;;;;;12.28;100.00;100702.59;5028715;28;20063;-62
2021/12/31 07:44:25;;;;;;;7.75;3.63;;;;;;;12.34;100.00;100698.72;5024483;28;20053;-62
2021/12/31 07:46:52;;;;;;;5.05;3.35;;;;;;;12.35;100.00;100697.78;5055397;22;20057;-59
2021/12/31 07:49:19;;;;;;;7.53;3.22;;;;;;;12.38;100.00;100694.91;5045015;28;20454;-59
2021/12/31 07:51:46;;;;;;;4.72;3.05;;;;;;;12.35;100.00;100689.84;5046312;28;20127;-58
2021/12/31 07:54:14;;;;;;;4.88;3.80;;;;;;;12.33;100.00;100684.66;5046300;28;20501;-59
2021/12/31 07:56:41;;;;;;;6.18;3.10;;;;;;;12.32;100.00;100697.97;5043073;28;20128;-59
2021/12/31 07:59:08;;;;;;;4.40;3.97;;;;;;;12.40;100.00;100695.69;5045684;28;20055;-55
2021/12/31 08:01:35;;;;;;;6.35;3.08;;;;;;;12.41;100.00;100686.81;5046758;28;20056;-56
2021/12/31 08:04:02;;;;;;;5.75;2.95;;;;;;;12.44;100.00;100701.59;5033391;28;20194;-59
2021/12/31 08:06:29;;;;;;;5.10;2.70;;;;;;;12.44;100.00;100704.25;5035278;28;20067;-60
2021/12/31 08:08:57;;;;;;;7.65;3.60;;;;;;;12.45;100.00;100690.94;5033231;28;20050;-58
2021/12/31 08:11:24;;;;;;;9.02;2.80;;;;;;;12.53;100.00;100693.09;5045430;28;20425;-58
2021/12/31 08:13:51;;;;;;;5.93;2.65;;;;;;;12.48;100.00;100701.31;5020541;28;20514;-59
2021/12/31 08:16:18;;;;;;;3.33;2.72;;;;;;;12.46;100.00;100697.06;5036686;28;20049;-59
2021/12/31 08:18:45;;;;;;;4.43;2.55;;;;;;;12.54;100.00;100692.13;5042849;28;20053;-60
2021/12/31 08:21:12;;;;;;;3.58;2.40;;;;;;;12.53;100.00;100691.28;5031083;28;20053;-60
2021/12/31 08:23:40;;;;;;;3.15;2.05;;;;;;;12.52;100.00;100689.59;5040029;28;20071;-59
2021/12/31 08:26:07;;;;;;;2.88;1.98;;;;;;;12.57;100.00;100682.22;5031271;28;20136;-58
2021/12/31 08:28:34;;;;;;;5.22;2.47;;;;;;;12.60;100.00;100692.56;5042846;28;21369;-58
2021/12/31 08:31:01;;;;;;;4.25;2.20;;;;;;;12.56;100.00;100682.28;5030555;28;20048;-58
2021/12/31 08:33:28;;;;;;;8.48;3.15;;;;;;;12.60;100.00;100676.72;5044632;28;20449;-58
2021/12/31 08:35:55;;;;;;;7.82;2.25;;;;;;;12.59;100.00;100680.31;5033237;28;20064;-59
2021/12/31 08:38:23;;;;;;;4.53;2.28;;;;;;;12.65;100.00;100668.47;5041511;28;20065;-58
2021/12/31 08:40:51;;;;;;;4.72;2.25;;;;;;;12.72;100.00;100658.38;5036683;28;20049;-59
2021/12/31 08:43:23;;;;;;;3.60;2.00;;;;;;;12.78;100.00;100671.16;5044774;28;20519;-59
2021/12/31 08:45:50;;;;;;;4.20;2.15;;;;;;;12.79;100.00;100664.91;5038381;28;20056;-59
2021/12/31 08:48:17;;;;;;;4.88;1.95;;;;;;;12.73;100.00;100674.09;5032550;28;20133;-58
2021/12/31 08:50:44;;;;;;;5.82;1.88;;;;;;;12.85;100.00;100670.63;5037499;28;20132;-59
2021/12/31 08:53:12;;;;;;;3.97;1.83;;;;;;;12.86;100.00;100667.03;5045805;28;20053;-60
2021/12/31 08:55:39;;;;;;;4.45;2.05;;;;;;;12.92;100.00;100668.41;5032399;28;20053;-60
2021/12/31 08:58:06;;;;;;;6.43;2.10;;;;;;;12.90;100.00;100665.03;5046233;28;20045;-59
2021/12/31 09:00:33;;;;;;;5.68;2.25;;;;;;;12.96;100.00;100646.13;5041768;28;20061;-60
2021/12/31 09:03:01;;;;;;;3.90;2.00;;;;;;;12.96;100.00;100664.63;5044560;28;20539;-61
2021/12/31 09:05:30;;;;;;;4.32;1.58;;;;;;;12.93;100.00;100663.03;5037001;28;20143;-61
2021/12/31 09:07:57;;;;;;;2.55;1.67;;;;;;;12.99;100.00;100674.13;5041932;28;20531;-60
2021/12/31 09:10:24;;;;;;;3.17;1.60;;;;;;;13.05;100.00;100671.91;5037938;28;20045;-60
2021/12/31 09:12:51;;;;;;;3.85;1.70;;;;;;;13.01;100.00;100674.88;5037438;28;20052;-61
2021/12/31 09:15:18;;;;;;;4.18;1.60;;;;;;;12.98;100.00;100675.09;5041998;28;20141;-60
2021/12/31 09:17:47;;;;;;;3.60;1.80;;;;;;;12.88;100.00;100666.97;5019102;28;20562;-61
2021/12/31 09:20:14;;;;;;;2.90;1.63;;;;;;;12.81;100.00;100678.88;5039192;28;20049;-60
2021/12/31 09:22:41;;;;;;;3.80;2.03;;;;;;;12.78;100.00;100684.34;5036433;28;20075;-61
2021/12/31 09:25:08;;;;;;;4.07;1.80;;;;;;;12.72;100.00;100696.19;5031926;28;20049;-61
2021/12/31 09:27:36;;;;;;;5.47;1.67;;;;;;;12.80;100.00;100690.41;5040984;28;20379;-60
2021/12/31 09:30:03;;;;;;;4.38;1.52;;;;;;;12.79;100.00;100684.28;5035071;28;20513;-59
2021/12/31 09:32:30;;;;;;;5.53;1.55;;;;;;;12.73;100.00;100692.59;5038313;28;20056;-60
2021/12/31 09:34:58;;;;;;;4.10;1.58;;;;;;;12.75;100.00;100688.06;5036017;28;20113;-60
2021/12/31 09:37:25;;;;;;;6.22;1.83;;;;;;;12.76;100.00;100704.75;5041038;28;20047;-60
2021/12/31 09:39:52;;;;;;;4.18;1.85;;;;;;;12.86;100.00;100704.03;5038136;28;20048;-60
2021/12/31 09:42:20;;;;;;;3.60;1.98;;;;;;;12.89;100.00;100684.50;5042270;28;20060;-58
2021/12/31 09:44:47;;;;;;;2.42;1.60;;;;;;;12.92;100.00;100673.69;5023146;28;20128;-61
2021/12/31 09:47:17;;;;;;;4.93;1.50;;;;;;;12.92;100.00;100684.25;5042544;28;20045;-60
2021/12/31 09:49:47;;;;;;;4.25;1.30;;;;;;;12.94;100.00;100674.47;5043312;28;20053;-61
2021/12/31 09:52:16;;;;;;;5.40;1.88;;;;;;;13.02;100.00;100687.16;5044950;28;20512;-61
2021/12/31 09:54:45;;;;;;;4.90;1.70;;;;;;;12.99;100.00;100677.63;5043250;28;20584;-59
2021/12/31 09:57:16;;;;;;;2.40;1.45;;;;;;;13.02;100.00;100692.44;5041177;28;20052;-60
2021/12/31 09:59:44;;;;;;;4.40;1.80;;;;;;;13.09;100.00;100675.19;5028490;28;20044;-61
2021/12/31 10:02:11;;;;;;;5.00;1.73;;;;;;;13.11;100.00;100671.50;5042989;28;20502;-61
2021/12/31 10:04:53;;;;;;;4.40;1.75;;;;;;;13.07;100.00;100674.47;5040200;28;20049;-61
2021/12/31 10:07:21;;;;;;;4.65;1.70;;;;;;;13.08;100.00;100665.59;5022554;28;20514;-58
2021/12/31 10:10:07;;;;;;;2.95;1.40;;;;;;;13.08;100.00;100662.94;5030497;28;20053;-60
2021/12/31 10:12:47;;;;;;;3.33;1.35;;;;;;;13.02;100.00;100671.31;5029465;28;20085;-60
2021/12/31 10:15:17;;;;;;;4.68;1.88;;;;;;;13.05;100.00;100673.72;5039053;28;20458;-60
2021/12/31 10:17:45;;;;;;;2.22;1.52;;;;;;;13.09;99.94;100657.53;5040734;28;20053;-59
2021/12/31 10:20:14;;;;;;;2.60;1.17;;;;;;;13.05;100.00;100657.84;5038109;28;20144;-60
2021/12/31 10:22:41;;;;;;;3.22;1.17;;;;;;;13.02;99.94;100666.00;5042184;28;20136;-60
2021/12/31 10:25:22;;;;;;;4.38;1.45;;;;;;;13.06;99.80;100672.78;5035590;28;20049;-57
2021/12/31 10:27:50;;;;;;;3.08;1.13;;;;;;;13.00;99.96;100650.25;5043790;28;20148;-58
2021/12/31 10:30:26;;;;;;;2.28;1.45;;;;;;;12.97;100.00;100662.81;5038702;28;20057;-60
2021/12/31 10:32:53;;;;;;;3.83;1.08;;;;;;;13.00;100.00;100657.31;5042348;28;20572;-59
2021/12/31 10:35:21;;;;;;;3.95;1.48;;;;;;;12.98;100.00;100664.53;5034929;28;20171;-58
2021/12/31 10:37:50;;;;;;;2.95;1.55;;;;;;;12.96;100.00;100661.13;5044829;28;20071;-59
2021/12/31 10:40:36;;;;;;;3.40;1.40;;;;;;;12.93;100.00;100668.31;5042136;28;20511;-61
2021/12/31 10:43:21;;;;;;;4.65;1.77;;;;;;;12.98;100.00;100656.59;5039331;28;20487;-60
2021/12/31 10:46:02;;;;;;;8.80;2.30;;;;;;;12.95;100.00;100655.00;5041981;28;20057;-57
2021/12/31 10:48:50;;;;;;;5.72;1.65;;;;;;;12.88;100.00;100661.66;5038254;28;20049;-60
2021/12/31 10:51:37;;;;;;;4.70;1.60;;;;;;;12.87;100.00;100657.31;5037107;28;20071;-56
2021/12/31 10:54:28;;;;;;;3.72;1.65;;;;;;;12.82;100.00;100654.97;5046693;28;20118;-60
2021/12/31 10:56:56;;;;;;;4.18;1.60;;;;;;;12.79;100.00;100659.63;5028144;28;20045;-60
2021/12/31 10:59:23;;;;;;;5.38;1.83;;;;;;;12.82;100.00;100652.34;5042234;28;20085;-59
2021/12/31 11:01:51;;;;;;;2.25;1.50;;;;;;;12.79;100.00;100649.94;5044783;28;20139;-58
2021/12/31 11:04:20;;;;;;;3.35;1.58;;;;;;;12.77;100.00;100650.97;5040560;28;20417;-59
2021/12/31 11:06:48;;;;;;;4.25;1.77;;;;;;;12.68;100.00;100645.34;5047431;28;20045;-59
2021/12/31 11:09:16;;;;;;;4.15;1.60;;;;;;;12.73;100.00;100644.19;5039457;28;20053;-59
2021/12/31 11:11:44;;;;;;;2.67;1.40;;;;;;;12.75;100.00;100637.88;5015203;28;20585;-61
2021/12/31 11:14:13;;;;;;;7.55;1.73;;;;;;;12.78;100.00;100636.81;5025891;28;20060;-58
2021/12/31 11:16:40;;;;;;;2.67;1.50;;;;;;;12.77;100.00;100633.31;5024032;28;20087;-59
2021/12/31 11:19:10;;;;;;;3.70;1.75;;;;;;;12.81;100.00;100636.59;5041096;28;20569;-60
2021/12/31 11:21:38;;;;;;;4.00;1.60;;;;;;;12.81;100.00;100629.53;5035502;28;20045;-60
2021/12/31 11:24:28;;;;;;;7.22;1.63;;;;;;;12.80;100.00;100637.56;5026084;28;20079;-59
2021/12/31 11:26:55;;;;;;;4.13;1.52;;;;;;;12.85;100.00;100625.72;5029132;28;20528;-58
2021/12/31 11:29:22;;;;;;;4.95;1.63;;;;;;;12.94;100.00;100624.25;5025436;28;20107;-60
2021/12/31 11:31:49;;;;;;;3.75;1.25;;;;;;;12.85;100.00;100635.44;5040441;28;20052;-58